sensor_id;sensor_type;location;lat;lon;timestamp;pressure;altitude;pressure_sealevel;temperature;humidity
51876;BME280;34054;52.100;5.116;2023-10-13T00:00:12;100989.72;;;18.13;100.00
51876;BME280;34054;52.100;5.116;2023-10-13T00:00:56;100998.66;;;18.04;100.00
51876;BME280;34054;52.100;5.116;2023-10-13T00:01:29;100992.75;;;17.97;100.00
51876;BME280;34054;52.100;5.116;2023-10-13T00:02:01;100992.75;;;17.97;100.00
51876;BME280;34054;52.100;5.116;2023-10-13T00:02:35;100977.84;;;17.84;100.00
51876;BME280;34054;52.100;5.116;2023-10-13T00:03:09;100987.03;;;17.94;100.00
51876;BME280;34054;52.100;5.116;2023-10-13T00:03:45;100991.13;;;17.96;100.00
51876;BME280;34054;52.100;5.116;2023-10-13T00:04:17;100988.16;;;17.93;100.00
51876;BME280;34054;52.100;5.116;2023-10-13T00:04:55;100991.03;;;18.01;100.00
51876;BME280;34054;52.100;5.116;2023-10-13T00:05:28;100989.09;;;18.02;100.00
51876;BME280;34054;52.100;5.116;2023-10-13T00:06:01;100984.94;;;18.04;100.00
51876;BME280;34054;52.100;5.116;2023-10-13T00:06:35;100996.03;;;17.99;100.00
51876;BME280;34054;52.100;5.116;2023-10-13T00:07:09;100986.16;;;17.98;100.00
51876;BME280;34054;52.100;5.116;2023-10-13T00:07:42;100973.63;;;18.06;100.00
51876;BME280;34054;52.100;5.116;2023-10-13T00:08:14;100975.78;;;18.09;100.00
51876;BME280;34054;52.100;5.116;2023-10-13T00:08:45;100982.00;;;18.15;100.00
51876;BME280;34054;52.100;5.116;2023-10-13T00:09:18;100977.50;;;18.19;100.00
51876;BME280;34054;52.100;5.116;2023-10-13T00:09:51;100986.03;;;18.03;100.00
51876;BME280;34054;52.100;5.116;2023-10-13T00:10:22;100976.88;;;18.08;100.00
51876;BME280;34054;52.100;5.116;2023-10-13T00:10:55;100980.03;;;18.01;100.00
51876;BME280;34054;52.100;5.116;2023-10-13T00:11:31;100973.41;;;18.02;100.00
51876;BME280;34054;52.100;5.116;2023-10-13T00:12:03;100981.38;;;18.04;100.00
51876;BME280;34054;52.100;5.116;2023-10-13T00:12:39;100978.47;;;17.95;100.00
51876;BME280;34054;52.100;5.116;2023-10-13T00:13:11;100978.59;;;17.90;100.00
51876;BME280;34054;52.100;5.116;2023-10-13T00:13:50;100974.03;;;17.99;100.00
51876;BME280;34054;52.100;5.116;2023-10-13T00:14:21;100974.66;;;18.10;100.00
51876;BME280;34054;52.100;5.116;2023-10-13T00:14:53;100971.72;;;18.20;100.00
51876;BME280;34054;52.100;5.116;2023-10-13T00:15:26;100966.22;;;18.20;100.00
51876;BME280;34054;52.100;5.116;2023-10-13T00:15:59;100965.50;;;18.15;100.00
51876;BME280;34054;52.100;5.116;2023-10-13T00:16:30;100961.00;;;18.19;100.00
51876;BME280;34054;52.100;5.116;2023-10-13T00:17:06;100969.03;;;18.15;100.00
51876;BME280;34054;52.100;5.116;2023-10-13T00:17:41;100962.44;;;18.16;100.00
51876;BME280;34054;52.100;5.116;2023-10-13T00:18:13;100964.28;;;18.21;100.00
51876;BME280;34054;52.100;5.116;2023-10-13T00:18:45;100971.28;;;18.27;100.00
51876;BME280;34054;52.100;5.116;2023-10-13T00:19:16;100965.69;;;18.32;100.00
51876;BME280;34054;52.100;5.116;2023-10-13T00:19:48;100959.81;;;18.25;100.00
51876;BME280;34054;52.100;5.116;2023-10-13T00:20:23;100963.47;;;18.20;100.00
51876;BME280;34054;52.100;5.116;2023-10-13T00:21:05;100960.81;;;18.15;100.00
51876;BME280;34054;52.100;5.116;2023-10-13T00:21:44;100960.72;;;18.20;100.00
51876;BME280;34054;52.100;5.116;2023-10-13T00:22:16;100958.78;;;18.21;100.00
51876;BME280;34054;52.100;5.116;2023-10-13T00:22:50;100961.44;;;18.12;100.00
51876;BME280;34054;52.100;5.116;2023-10-13T00:23:22;100960.72;;;18.07;100.00
51876;BME280;34054;52.100;5.116;2023-10-13T00:23:58;100962.34;;;18.08;100.00
51876;BME280;34054;52.100;5.116;2023-10-13T00:24:32;100960.59;;;18.12;100.00
51876;BME280;34054;52.100;5.116;2023-10-13T00:25:12;100964.38;;;18.16;100.00
51876;BME280;34054;52.100;5.116;2023-10-13T00:25:50;100972.97;;;17.95;100.00
51876;BME280;34054;52.100;5.116;2023-10-13T00:26:28;100967.63;;;18.04;100.00
51876;BME280;34054;52.100;5.116;2023-10-13T00:27:02;100975.16;;;17.98;100.00
51876;BME280;34054;52.100;5.116;2023-10-13T00:27:35;100964.44;;;17.97;100.00
51876;BME280;34054;52.100;5.116;2023-10-13T00:28:12;100970.06;;;18.05;100.00
51876;BME280;34054;52.100;5.116;2023-10-13T00:28:53;100975.72;;;17.95;100.00
51876;BME280;34054;52.100;5.116;2023-10-13T00:29:39;100971.56;;;17.98;100.00
51876;BME280;34054;52.100;5.116;2023-10-13T00:30:11;100958.34;;;18.00;100.00
51876;BME280;34054;52.100;5.116;2023-10-13T00:30:53;100951.75;;;18.01;100.00
51876;BME280;34054;52.100;5.116;2023-10-13T00:31:31;100962.34;;;18.08;100.00
51876;BME280;34054;52.100;5.116;2023-10-13T00:32:07;100959.56;;;18.21;100.00
51876;BME280;34054;52.100;5.116;2023-10-13T00:32:43;100959.28;;;18.23;100.00
51876;BME280;34054;52.100;5.116;2023-10-13T00:33:17;100949.22;;;18.18;100.00
51876;BME280;34054;52.100;5.116;2023-10-13T00:33:51;100964.22;;;17.93;100.00
51876;BME280;34054;52.100;5.116;2023-10-13T00:34:26;100957.31;;;17.82;100.00
51876;BME280;34054;52.100;5.116;2023-10-13T00:35:00;100965.53;;;17.82;100.00
51876;BME280;34054;52.100;5.116;2023-10-13T00:35:36;100954.66;;;17.90;100.00
51876;BME280;34054;52.100;5.116;2023-10-13T00:36:08;100959.16;;;18.00;100.00
51876;BME280;34054;52.100;5.116;2023-10-13T00:36:49;100952.47;;;18.07;100.00
51876;BME280;34054;52.100;5.116;2023-10-13T00:37:41;100947.78;;;18.07;100.00
51876;BME280;34054;52.100;5.116;2023-10-13T00:38:15;100956.84;;;18.08;100.00
51876;BME280;34054;52.100;5.116;2023-10-13T00:38:50;100953.66;;;18.00;100.00
51876;BME280;34054;52.100;5.116;2023-10-13T00:39:23;100944.50;;;18.05;100.00
51876;BME280;34054;52.100;5.116;2023-10-13T00:39:55;100949.19;;;18.04;100.00
51876;BME280;34054;52.100;5.116;2023-10-13T00:40:32;100942.19;;;18.12;100.00
51876;BME280;34054;52.100;5.116;2023-10-13T00:41:15;100952.25;;;18.17;100.00
51876;BME280;34054;52.100;5.116;2023-10-13T00:41:47;100943.91;;;18.22;100.00
51876;BME280;34054;52.100;5.116;2023-10-13T00:42:23;100949.94;;;18.24;100.00
51876;BME280;34054;52.100;5.116;2023-10-13T00:43:04;100941.03;;;18.27;100.00
51876;BME280;34054;52.100;5.116;2023-10-13T00:43:57;100936.66;;;18.26;100.00
51876;BME280;34054;52.100;5.116;2023-10-13T00:44:35;100938.09;;;18.10;100.00
51876;BME280;34054;52.100;5.116;2023-10-13T00:45:12;100934.56;;;18.09;100.00
51876;BME280;34054;52.100;5.116;2023-10-13T00:45:49;100944.22;;;18.20;100.00
51876;BME280;34054;52.100;5.116;2023-10-13T00:46:26;100929.34;;;18.21;100.00
51876;BME280;34054;52.100;5.116;2023-10-13T00:47:04;100932.53;;;18.15;100.00
51876;BME280;34054;52.100;5.116;2023-10-13T00:47:38;100934.56;;;18.09;100.00
51876;BME280;34054;52.100;5.116;2023-10-13T00:48:10;100935.63;;;17.94;100.00
51876;BME280;34054;52.100;5.116;2023-10-13T00:48:44;100933.31;;;18.01;100.00
51876;BME280;34054;52.100;5.116;2023-10-13T00:49:23;100936.97;;;18.11;100.00
51876;BME280;34054;52.100;5.116;2023-10-13T00:49:56;100937.50;;;18.13;100.00
51876;BME280;34054;52.100;5.116;2023-10-13T00:50:27;100939.72;;;18.11;100.00
51876;BME280;34054;52.100;5.116;2023-10-13T00:51:02;100936.25;;;18.05;100.00
51876;BME280;34054;52.100;5.116;2023-10-13T00:51:34;100937.31;;;18.09;100.00
51876;BME280;34054;52.100;5.116;2023-10-13T00:52:09;100932.59;;;18.10;100.00
51876;BME280;34054;52.100;5.116;2023-10-13T00:52:44;100932.09;;;18.21;100.00
51876;BME280;34054;52.100;5.116;2023-10-13T00:53:23;100926.09;;;18.05;100.00
51876;BME280;34054;52.100;5.116;2023-10-13T00:53:56;100922.72;;;18.09;100.00
51876;BME280;34054;52.100;5.116;2023-10-13T00:54:28;100917.22;;;18.09;100.00
51876;BME280;34054;52.100;5.116;2023-10-13T00:55:00;100925.06;;;18.15;100.00
51876;BME280;34054;52.100;5.116;2023-10-13T00:55:33;100918.34;;;18.21;100.00
51876;BME280;34054;52.100;5.116;2023-10-13T00:56:06;100917.53;;;18.21;100.00
51876;BME280;34054;52.100;5.116;2023-10-13T00:56:40;100923.34;;;18.19;100.00
51876;BME280;34054;52.100;5.116;2023-10-13T00:57:17;100917.66;;;18.02;100.00
51876;BME280;34054;52.100;5.116;2023-10-13T00:57:57;100913.06;;;17.97;100.00
51876;BME280;34054;52.100;5.116;2023-10-13T00:58:34;100915.91;;;18.06;100.00
51876;BME280;34054;52.100;5.116;2023-10-13T00:59:06;100922.72;;;18.09;100.00
51876;BME280;34054;52.100;5.116;2023-10-13T00:59:41;100918.66;;;18.06;100.00
51876;BME280;34054;52.100;5.116;2023-10-13T01:00:13;100912.53;;;17.95;100.00
51876;BME280;34054;52.100;5.116;2023-10-13T01:00:50;100912.53;;;17.95;100.00
51876;BME280;34054;52.100;5.116;2023-10-13T01:01:27;100924.06;;;18.11;100.00
51876;BME280;34054;52.100;5.116;2023-10-13T01:02:01;100917.53;;;18.21;100.00
51876;BME280;34054;52.100;5.116;2023-10-13T01:02:54;100914.41;;;18.14;100.00
51876;BME280;34054;52.100;5.116;2023-10-13T01:03:27;100911.97;;;18.12;100.00
51876;BME280;34054;52.100;5.116;2023-10-13T01:03:58;100907.88;;;18.10;100.00
51876;BME280;34054;52.100;5.116;2023-10-13T01:04:30;100903.81;;;18.07;100.00
51876;BME280;34054;52.100;5.116;2023-10-13T01:05:03;100909.28;;;18.21;100.00
51876;BME280;34054;52.100;5.116;2023-10-13T01:05:36;100916.22;;;18.32;100.00
51876;BME280;34054;52.100;5.116;2023-10-13T01:06:08;100908.44;;;18.34;100.00
51876;BME280;34054;52.100;5.116;2023-10-13T01:06:43;100906.94;;;18.28;100.00
51876;BME280;34054;52.100;5.116;2023-10-13T01:07:18;100905.75;;;18.07;100.00
51876;BME280;34054;52.100;5.116;2023-10-13T01:07:53;100903.91;;;18.02;100.00
51876;BME280;34054;52.100;5.116;2023-10-13T01:08:32;100907.88;;;17.96;100.00
51876;BME280;34054;52.100;5.116;2023-10-13T01:09:07;100904.59;;;17.94;100.00
51876;BME280;34054;52.100;5.116;2023-10-13T01:09:44;100899.91;;;17.94;100.00
51876;BME280;34054;52.100;5.116;2023-10-13T01:10:18;100911.97;;;17.98;100.00
51876;BME280;34054;52.100;5.116;2023-10-13T01:10:51;100905.03;;;18.01;100.00
51876;BME280;34054;52.100;5.116;2023-10-13T01:11:24;100900.13;;;17.98;100.00
51876;BME280;34054;52.100;5.116;2023-10-13T01:11:58;100911.00;;;17.89;100.00
51876;BME280;34054;52.100;5.116;2023-10-13T01:12:31;100895.63;;;17.88;100.00
51876;BME280;34054;52.100;5.116;2023-10-13T01:13:04;100896.03;;;17.95;100.00
51876;BME280;34054;52.100;5.116;2023-10-13T01:13:35;100903.22;;;17.96;100.00
51876;BME280;34054;52.100;5.116;2023-10-13T01:14:07;100899.53;;;18.01;100.00
51876;BME280;34054;52.100;5.116;2023-10-13T01:14:39;100901.88;;;18.08;100.00
51876;BME280;34054;52.100;5.116;2023-10-13T01:15:11;100902.81;;;18.03;100.00
51876;BME280;34054;52.100;5.116;2023-10-13T01:15:47;100886.56;;;17.87;100.00
51876;BME280;34054;52.100;5.116;2023-10-13T01:16:19;100897.28;;;17.89;100.00
51876;BME280;34054;52.100;5.116;2023-10-13T01:16:55;100899.50;;;17.87;100.00
51876;BME280;34054;52.100;5.116;2023-10-13T01:17:29;100893.41;;;17.90;100.00
51876;BME280;34054;52.100;5.116;2023-10-13T01:18:06;100903.88;;;17.88;100.00
51876;BME280;34054;52.100;5.116;2023-10-13T01:18:42;100896.94;;;17.77;100.00
51876;BME280;34054;52.100;5.116;2023-10-13T01:19:19;100897.47;;;17.79;100.00
51876;BME280;34054;52.100;5.116;2023-10-13T01:19:55;100895.97;;;18.00;100.00
51876;BME280;34054;52.100;5.116;2023-10-13T01:20:29;100890.19;;;18.02;100.00
51876;BME280;34054;52.100;5.116;2023-10-13T01:21:04;100897.78;;;18.05;100.00
51876;BME280;34054;52.100;5.116;2023-10-13T01:21:37;100883.44;;;17.94;100.00
51876;BME280;34054;52.100;5.116;2023-10-13T01:22:11;100889.34;;;18.01;100.00
51876;BME280;34054;52.100;5.116;2023-10-13T01:22:44;100895.25;;;18.09;100.00
51876;BME280;34054;52.100;5.116;2023-10-13T01:23:22;100882.94;;;18.06;100.00
51876;BME280;34054;52.100;5.116;2023-10-13T01:23:56;100887.91;;;18.18;100.00
51876;BME280;34054;52.100;5.116;2023-10-13T01:24:28;100886.28;;;18.17;100.00
51876;BME280;34054;52.100;5.116;2023-10-13T01:25:02;100881.81;;;18.07;100.00
51876;BME280;34054;52.100;5.116;2023-10-13T01:25:36;100884.75;;;18.11;100.00
51876;BME280;34054;52.100;5.116;2023-10-13T01:26:07;100881.94;;;18.16;100.00
51876;BME280;34054;52.100;5.116;2023-10-13T01:26:40;100878.53;;;18.19;100.00
51876;BME280;34054;52.100;5.116;2023-10-13T01:27:13;100886.50;;;18.07;100.00
51876;BME280;34054;52.100;5.116;2023-10-13T01:27:48;100880.91;;;18.12;100.00
51876;BME280;34054;52.100;5.116;2023-10-13T01:28:20;100879.19;;;18.02;100.00
51876;BME280;34054;52.100;5.116;2023-10-13T01:28:57;100872.97;;;17.96;100.00
51876;BME280;34054;52.100;5.116;2023-10-13T01:29:29;100886.72;;;17.96;100.00
51876;BME280;34054;52.100;5.116;2023-10-13T01:30:01;100882.84;;;17.97;100.00
51876;BME280;34054;52.100;5.116;2023-10-13T01:30:37;100884.88;;;18.05;100.00
51876;BME280;34054;52.100;5.116;2023-10-13T01:31:10;100884.97;;;18.00;100.00
51876;BME280;34054;52.100;5.116;2023-10-13T01:31:55;100869.81;;;17.75;100.00
51876;BME280;34054;52.100;5.116;2023-10-13T01:32:26;100883.81;;;17.87;100.00
51876;BME280;34054;52.100;5.116;2023-10-13T01:32:58;100880.28;;;17.87;100.00
51876;BME280;34054;52.100;5.116;2023-10-13T01:33:31;100873.19;;;18.00;100.00
51876;BME280;34054;52.100;5.116;2023-10-13T01:34:05;100880.81;;;18.03;100.00
51876;BME280;34054;52.100;5.116;2023-10-13T01:34:38;100876.81;;;17.95;100.00
51876;BME280;34054;52.100;5.116;2023-10-13T01:35:10;100877.94;;;17.94;100.00
51876;BME280;34054;52.100;5.116;2023-10-13T01:35:42;100874.25;;;17.85;100.00
51876;BME280;34054;52.100;5.116;2023-10-13T01:36:18;100872.63;;;17.84;100.00
51876;BME280;34054;52.100;5.116;2023-10-13T01:36:50;100873.88;;;17.92;100.00
51876;BME280;34054;52.100;5.116;2023-10-13T01:37:22;100872.44;;;17.94;100.00
51876;BME280;34054;52.100;5.116;2023-10-13T01:37:54;100877.44;;;18.06;100.00
51876;BME280;34054;52.100;5.116;2023-10-13T01:38:27;100873.38;;;18.03;100.00
51876;BME280;34054;52.100;5.116;2023-10-13T01:39:04;100874.41;;;18.08;100.00
51876;BME280;34054;52.100;5.116;2023-10-13T01:39:36;100870.81;;;18.07;100.00
51876;BME280;34054;52.100;5.116;2023-10-13T01:40:09;100871.72;;;17.88;100.00
51876;BME280;34054;52.100;5.116;2023-10-13T01:40:42;100873.66;;;17.88;100.00
51876;BME280;34054;52.100;5.116;2023-10-13T01:41:14;100877.03;;;17.99;100.00
51876;BME280;34054;52.100;5.116;2023-10-13T01:41:46;100874.38;;;17.94;100.00
51876;BME280;34054;52.100;5.116;2023-10-13T01:42:26;100864.53;;;18.07;100.00
51876;BME280;34054;52.100;5.116;2023-10-13T01:43:01;100865.66;;;18.05;100.00
51876;BME280;34054;52.100;5.116;2023-10-13T01:43:35;100863.91;;;18.10;100.00
51876;BME280;34054;52.100;5.116;2023-10-13T01:44:07;100870.31;;;18.05;100.00
51876;BME280;34054;52.100;5.116;2023-10-13T01:44:42;100863.09;;;18.09;100.00
51876;BME280;34054;52.100;5.116;2023-10-13T01:45:14;100854.66;;;18.05;100.00
51876;BME280;34054;52.100;5.116;2023-10-13T01:45:46;100865.97;;;18.04;100.00
51876;BME280;34054;52.100;5.116;2023-10-13T01:46:20;100851.06;;;18.05;100.00
51876;BME280;34054;52.100;5.116;2023-10-13T01:46:52;100856.38;;;18.01;100.00
51876;BME280;34054;52.100;5.116;2023-10-13T01:47:24;100856.78;;;17.95;100.00
51876;BME280;34054;52.100;5.116;2023-10-13T01:47:58;100861.28;;;18.04;100.00
51876;BME280;34054;52.100;5.116;2023-10-13T01:48:32;100873.88;;;18.05;100.00
51876;BME280;34054;52.100;5.116;2023-10-13T01:49:04;100864.03;;;18.04;100.00
51876;BME280;34054;52.100;5.116;2023-10-13T01:49:35;100859.63;;;18.03;100.00
51876;BME280;34054;52.100;5.116;2023-10-13T01:50:13;100858.72;;;18.08;100.00
51876;BME280;34054;52.100;5.116;2023-10-13T01:50:56;100858.41;;;18.10;100.00
51876;BME280;34054;52.100;5.116;2023-10-13T01:51:30;100852.50;;;18.02;100.00
51876;BME280;34054;52.100;5.116;2023-10-13T01:52:02;100858.63;;;17.99;100.00
51876;BME280;34054;52.100;5.116;2023-10-13T01:52:34;100855.22;;;17.88;100.00
51876;BME280;34054;52.100;5.116;2023-10-13T01:53:06;100854.31;;;17.93;100.00
51876;BME280;34054;52.100;5.116;2023-10-13T01:53:44;100859.44;;;18.00;100.00
51876;BME280;34054;52.100;5.116;2023-10-13T01:54:24;100854.97;;;18.04;100.00
51876;BME280;34054;52.100;5.116;2023-10-13T01:54:56;100851.41;;;18.03;100.00
51876;BME280;34054;52.100;5.116;2023-10-13T01:55:32;100849.88;;;17.97;100.00
51876;BME280;34054;52.100;5.116;2023-10-13T01:56:10;100845.59;;;18.05;100.00
51876;BME280;34054;52.100;5.116;2023-10-13T01:56:41;100851.41;;;18.03;100.00
51876;BME280;34054;52.100;5.116;2023-10-13T01:57:15;100847.53;;;18.04;100.00
51876;BME280;34054;52.100;5.116;2023-10-13T01:57:48;100853.53;;;18.07;100.00
51876;BME280;34054;52.100;5.116;2023-10-13T01:58:20;100854.34;;;18.07;100.00
51876;BME280;34054;52.100;5.116;2023-10-13T01:58:53;100851.91;;;18.05;100.00
51876;BME280;34054;52.100;5.116;2023-10-13T01:59:25;100846.50;;;18.00;100.00
51876;BME280;34054;52.100;5.116;2023-10-13T01:59:57;100847.72;;;17.94;100.00
51876;BME280;34054;52.100;5.116;2023-10-13T02:00:35;100847.41;;;17.96;100.00
51876;BME280;34054;52.100;5.116;2023-10-13T02:01:12;100842.94;;;18.00;100.00
51876;BME280;34054;52.100;5.116;2023-10-13T02:01:44;100845.38;;;18.01;100.00
51876;BME280;34054;52.100;5.116;2023-10-13T02:02:16;100837.78;;;17.98;100.00
51876;BME280;34054;52.100;5.116;2023-10-13T02:02:59;100846.41;;;18.05;100.00
51876;BME280;34054;52.100;5.116;2023-10-13T02:03:31;100839.81;;;18.07;100.00
51876;BME280;34054;52.100;5.116;2023-10-13T02:04:03;100843.34;;;18.07;100.00
51876;BME280;34054;52.100;5.116;2023-10-13T02:04:37;100840.19;;;18.14;100.00
51876;BME280;34054;52.100;5.116;2023-10-13T02:05:13;100849.22;;;18.28;100.00
51876;BME280;34054;52.100;5.116;2023-10-13T02:05:49;100846.19;;;18.16;100.00
51876;BME280;34054;52.100;5.116;2023-10-13T02:06:23;100838.56;;;17.99;100.00
51876;BME280;34054;52.100;5.116;2023-10-13T02:06:55;100832.56;;;17.97;100.00
51876;BME280;34054;52.100;5.116;2023-10-13T02:07:27;100839.28;;;18.04;100.00
51876;BME280;34054;52.100;5.116;2023-10-13T02:08:00;100845.19;;;18.12;100.00
51876;BME280;34054;52.100;5.116;2023-10-13T02:08:41;100834.91;;;18.03;100.00
51876;BME280;34054;52.100;5.116;2023-10-13T02:09:18;100838.25;;;18.00;100.00
51876;BME280;34054;52.100;5.116;2023-10-13T02:09:56;100839.69;;;18.12;100.00
51876;BME280;34054;52.100;5.116;2023-10-13T02:10:28;100827.25;;;18.14;100.00
51876;BME280;34054;52.100;5.116;2023-10-13T02:11:01;100833.25;;;18.16;100.00
51876;BME280;34054;52.100;5.116;2023-10-13T02:11:38;100831.97;;;18.00;100.00
51876;BME280;34054;52.100;5.116;2023-10-13T02:12:10;100834.19;;;17.98;100.00
51876;BME280;34054;52.100;5.116;2023-10-13T02:12:42;100830.53;;;18.02;100.00
51876;BME280;34054;52.100;5.116;2023-10-13T02:13:14;100833.91;;;17.99;100.00
51876;BME280;34054;52.100;5.116;2023-10-13T02:13:48;100828.19;;;17.96;100.00
51876;BME280;34054;52.100;5.116;2023-10-13T02:14:19;100825.16;;;17.97;100.00
51876;BME280;34054;52.100;5.116;2023-10-13T02:14:53;100838.16;;;18.05;100.00
51876;BME280;34054;52.100;5.116;2023-10-13T02:15:25;100830.91;;;18.10;100.00
51876;BME280;34054;52.100;5.116;2023-10-13T02:15:57;100829.72;;;18.16;100.00
51876;BME280;34054;52.100;5.116;2023-10-13T02:16:33;100841.81;;;18.15;100.00
51876;BME280;34054;52.100;5.116;2023-10-13T02:17:07;100829.59;;;18.07;100.00
51876;BME280;34054;52.100;5.116;2023-10-13T02:17:47;100823.69;;;18.14;100.00
51876;BME280;34054;52.100;5.116;2023-10-13T02:18:23;100839.25;;;18.18;100.00
51876;BME280;34054;52.100;5.116;2023-10-13T02:18:57;100831.13;;;18.13;100.00
51876;BME280;34054;52.100;5.116;2023-10-13T02:19:34;100824.63;;;18.09;100.00
51876;BME280;34054;52.100;5.116;2023-10-13T02:20:07;100829.09;;;18.05;100.00
51876;BME280;34054;52.100;5.116;2023-10-13T02:20:41;100836.66;;;17.99;100.00
51876;BME280;34054;52.100;5.116;2023-10-13T02:21:14;100832.84;;;17.95;100.00
51876;BME280;34054;52.100;5.116;2023-10-13T02:21:45;100829.03;;;17.96;100.00
51876;BME280;34054;52.100;5.116;2023-10-13T02:22:29;100825.03;;;18.02;100.00
51876;BME280;34054;52.100;5.116;2023-10-13T02:23:03;100823.91;;;18.03;100.00
51876;BME280;34054;52.100;5.116;2023-10-13T02:23:41;100820.56;;;18.07;100.00
51876;BME280;34054;52.100;5.116;2023-10-13T02:24:16;100815.38;;;17.91;100.00
51876;BME280;34054;52.100;5.116;2023-10-13T02:24:49;100816.00;;;18.02;100.00
51876;BME280;34054;52.100;5.116;2023-10-13T02:25:23;100818.09;;;18.05;100.00
51876;BME280;34054;52.100;5.116;2023-10-13T02:26:06;100812.94;;;18.03;100.00
51876;BME280;34054;52.100;5.116;2023-10-13T02:26:43;100813.94;;;17.94;100.00
51876;BME280;34054;52.100;5.116;2023-10-13T02:27:16;100809.38;;;17.89;100.00
51876;BME280;34054;52.100;5.116;2023-10-13T02:27:47;100809.56;;;17.93;100.00
51876;BME280;34054;52.100;5.116;2023-10-13T02:28:29;100812.63;;;17.91;100.00
51876;BME280;34054;52.100;5.116;2023-10-13T02:29:05;100813.22;;;17.88;100.00
51876;BME280;34054;52.100;5.116;2023-10-13T02:29:38;100810.78;;;18.00;100.00
51876;BME280;34054;52.100;5.116;2023-10-13T02:30:11;100814.88;;;18.03;100.00
51876;BME280;34054;52.100;5.116;2023-10-13T02:30:45;100806.63;;;18.03;100.00
51876;BME280;34054;52.100;5.116;2023-10-13T02:31:19;100809.19;;;17.99;100.00
51876;BME280;34054;52.100;5.116;2023-10-13T02:31:55;100805.81;;;18.02;100.00
51876;BME280;34054;52.100;5.116;2023-10-13T02:32:28;100806.00;;;18.06;100.00
51876;BME280;34054;52.100;5.116;2023-10-13T02:33:01;100800.00;;;17.90;100.00
51876;BME280;34054;52.100;5.116;2023-10-13T02:33:36;100802.84;;;17.99;100.00
51876;BME280;34054;52.100;5.116;2023-10-13T02:34:15;100798.06;;;18.04;100.00
51876;BME280;34054;52.100;5.116;2023-10-13T02:34:49;100796.34;;;17.95;100.00
51876;BME280;34054;52.100;5.116;2023-10-13T02:35:21;100797.44;;;17.94;100.00
51876;BME280;34054;52.100;5.116;2023-10-13T02:36:01;100791.06;;;17.98;100.00
51876;BME280;34054;52.100;5.116;2023-10-13T02:36:36;100792.44;;;18.10;100.00
51876;BME280;34054;52.100;5.116;2023-10-13T02:37:09;100792.53;;;18.18;100.00
51876;BME280;34054;52.100;5.116;2023-10-13T02:37:41;100789.97;;;18.22;100.00
51876;BME280;34054;52.100;5.116;2023-10-13T02:38:15;100790.22;;;18.12;100.00
51876;BME280;34054;52.100;5.116;2023-10-13T02:38:47;100791.41;;;18.19;100.00
51876;BME280;34054;52.100;5.116;2023-10-13T02:39:23;100786.03;;;18.14;100.00
51876;BME280;34054;52.100;5.116;2023-10-13T02:39:56;100778.66;;;18.24;100.00
51876;BME280;34054;52.100;5.116;2023-10-13T02:40:29;100785.47;;;18.26;100.00
51876;BME280;34054;52.100;5.116;2023-10-13T02:41:10;100786.91;;;18.24;100.00
51876;BME280;34054;52.100;5.116;2023-10-13T02:41:43;100785.28;;;18.23;100.00
51876;BME280;34054;52.100;5.116;2023-10-13T02:42:18;100777.97;;;18.18;100.00
51876;BME280;34054;52.100;5.116;2023-10-13T02:42:54;100776.78;;;18.10;100.00
51876;BME280;34054;52.100;5.116;2023-10-13T02:43:26;100786.88;;;18.01;100.00
51876;BME280;34054;52.100;5.116;2023-10-13T02:44:05;100778.63;;;18.01;100.00
51876;BME280;34054;52.100;5.116;2023-10-13T02:44:37;100773.84;;;18.07;100.00
51876;BME280;34054;52.100;5.116;2023-10-13T02:45:12;100778.28;;;18.16;100.00
51876;BME280;34054;52.100;5.116;2023-10-13T02:45:51;100777.97;;;18.18;100.00
51876;BME280;34054;52.100;5.116;2023-10-13T02:46:28;100774.22;;;18.14;100.00
51876;BME280;34054;52.100;5.116;2023-10-13T02:47:00;100774.28;;;18.23;100.00
51876;BME280;34054;52.100;5.116;2023-10-13T02:47:36;100763.81;;;18.25;100.00
51876;BME280;34054;52.100;5.116;2023-10-13T02:48:08;100768.69;;;18.28;100.00
51876;BME280;34054;52.100;5.116;2023-10-13T02:48:44;100764.75;;;18.20;100.00
51876;BME280;34054;52.100;5.116;2023-10-13T02:49:17;100764.31;;;18.27;100.00
51876;BME280;34054;52.100;5.116;2023-10-13T02:49:50;100756.38;;;18.25;100.00
51876;BME280;34054;52.100;5.116;2023-10-13T02:50:22;100760.25;;;18.24;100.00
51876;BME280;34054;52.100;5.116;2023-10-13T02:50:57;100766.38;;;18.21;100.00
51876;BME280;34054;52.100;5.116;2023-10-13T02:51:32;100759.47;;;18.10;100.00
51876;BME280;34054;52.100;5.116;2023-10-13T02:52:06;100755.72;;;18.05;100.00
51876;BME280;34054;52.100;5.116;2023-10-13T02:52:40;100755.97;;;18.18;100.00
51876;BME280;34054;52.100;5.116;2023-10-13T02:53:12;100755.13;;;18.31;100.00
51876;BME280;34054;52.100;5.116;2023-10-13T02:53:44;100756.25;;;18.30;100.00
51876;BME280;34054;52.100;5.116;2023-10-13T02:54:20;100758.50;;;18.28;100.00
51876;BME280;34054;52.100;5.116;2023-10-13T02:54:53;100746.72;;;18.28;100.00
51876;BME280;34054;52.100;5.116;2023-10-13T02:55:25;100750.91;;;18.25;100.00
51876;BME280;34054;52.100;5.116;2023-10-13T02:55:57;100754.25;;;18.22;100.00
51876;BME280;34054;52.100;5.116;2023-10-13T02:56:29;100745.31;;;18.16;100.00
51876;BME280;34054;52.100;5.116;2023-10-13T02:57:02;100738.28;;;18.24;100.00
51876;BME280;34054;52.100;5.116;2023-10-13T02:57:34;100748.53;;;18.32;100.00
51876;BME280;34054;52.100;5.116;2023-10-13T02:58:06;100734.63;;;18.38;100.00
51876;BME280;34054;52.100;5.116;2023-10-13T02:58:40;100738.41;;;18.42;100.00